PWSweather.com
Personal Weather Stations
Station Observations
KC4KQE
Superstition Mountains, Apache Junction, AZ 85119

Superstition MountainsApache Junction, AZ 85119

Lat: 33.41578, Lon: -111.49328

Elevation: 1850

Station Type: Davis Vantage Pro2 Plus

http://kc4kqe.org/

High Low Average
Temperature 75.7°F24.3°C 51.7°F10.9°C 65.0°F18.3°C
Dew Point 47.3°F8.5°C 34.1°F1.2°C 39.5°F4.2°C
Winds 14.0 mph 22.5 kmh Calm Calm 4.0 mph SSW6.4 kmh SSW
Wind Gusts 17.0 mph27.4 kmh -- 8.0 mph12.9 kmh
Humidity 84% 23% 43%
Pressure 29.98 in1015.2 mb 29.74 in1007.1 mb -
Precipitation 0.06 in1.5 mm - -
Hour Temp Dew Point Humidity Winds Wind Gusts Pressure Precip Precip Rate Daily Precip Total
12:00 AM 63.2°F17.3°C 37.8°F3.2°C 39% 5.0 mph S8.0 kmh S 11.0 mph17.7 kmh 29.74 in1007.1 mb 0.00 in0.0 mm 0.00 in0.0 mm 0.00 in0.0 mm
12:05 AM 63.1°F17.3°C 37.7°F3.2°C 39% Calm Calm 10.0 mph16.1 kmh 29.74 in1007.1 mb 0.00 in0.0 mm 0.00 in0.0 mm 0.00 in0.0 mm
12:10 AM 63.0°F17.2°C 38.2°F3.4°C 40% 3.0 mph SSW4.8 kmh SSW 9.0 mph14.5 kmh 29.74 in1007.1 mb 0.00 in0.0 mm 0.00 in0.0 mm 0.00 in0.0 mm
12:15 AM 62.9°F17.2°C 38.2°F3.4°C 40% 6.0 mph SW9.7 kmh SW 9.0 mph14.5 kmh 29.74 in1007.1 mb 0.00 in0.0 mm 0.00 in0.0 mm 0.00 in0.0 mm
12:20 AM 62.9°F17.2°C 38.2°F3.4°C 40% 6.0 mph SSW9.7 kmh SSW 9.0 mph14.5 kmh 29.74 in1007.1 mb 0.00 in0.0 mm 0.00 in0.0 mm 0.00 in0.0 mm
12:25 AM 62.8°F17.1°C 38.1°F3.4°C 40% 2.0 mph S3.2 kmh S 9.0 mph14.5 kmh 29.74 in1007.1 mb 0.00 in0.0 mm 0.00 in0.0 mm 0.00 in0.0 mm
12:30 AM 62.7°F17.1°C 38.0°F3.3°C 40% 3.0 mph SW4.8 kmh SW 8.0 mph12.9 kmh 29.74 in1007.1 mb 0.00 in0.0 mm 0.00 in0.0 mm 0.00 in0.0 mm
12:35 AM 62.7°F17.1°C 38.0°F3.3°C 40% 5.0 mph S8.0 kmh S 9.0 mph14.5 kmh 29.74 in1007.1 mb 0.00 in0.0 mm 0.00 in0.0 mm 0.00 in0.0 mm
12:40 AM 62.6°F17.0°C 37.9°F3.3°C 40% 4.0 mph SSW6.4 kmh SSW 7.0 mph11.3 kmh 29.74 in1007.1 mb 0.00 in0.0 mm 0.00 in0.0 mm 0.00 in0.0 mm
12:45 AM 62.6°F17.0°C 38.5°F3.6°C 41% 4.0 mph SW6.4 kmh SW 10.0 mph16.1 kmh 29.74 in1007.1 mb 0.00 in0.0 mm 0.00 in0.0 mm 0.00 in0.0 mm
12:50 AM 62.6°F17.0°C 38.5°F3.6°C 41% 2.0 mph S3.2 kmh S 7.0 mph11.3 kmh 29.74 in1007.1 mb 0.00 in0.0 mm 0.00 in0.0 mm 0.00 in0.0 mm
12:55 AM 62.6°F17.0°C 39.1°F3.9°C 42% 3.0 mph S4.8 kmh S 8.0 mph12.9 kmh 29.74 in1007.1 mb 0.00 in0.0 mm 0.00 in0.0 mm 0.00 in0.0 mm
01:00 AM 62.5°F16.9°C 39.0°F3.9°C 42% 8.0 mph SSW12.9 kmh SSW 8.0 mph12.9 kmh 29.74 in1007.1 mb 0.00 in0.0 mm 0.00 in0.0 mm 0.00 in0.0 mm
01:05 AM 62.4°F16.9°C 39.0°F3.9°C 42% 5.0 mph SSW8.0 kmh SSW 8.0 mph12.9 kmh 29.74 in1007.1 mb 0.00 in0.0 mm 0.00 in0.0 mm 0.00 in0.0 mm
01:10 AM 62.4°F16.9°C 39.0°F3.9°C 42% 7.0 mph SSW11.3 kmh SSW 11.0 mph17.7 kmh 29.74 in1007.1 mb 0.00 in0.0 mm 0.00 in0.0 mm 0.00 in0.0 mm
01:15 AM 62.3°F16.8°C 39.5°F4.2°C 43% 4.0 mph SW6.4 kmh SW 11.0 mph17.7 kmh 29.75 in1007.5 mb 0.00 in0.0 mm 0.00 in0.0 mm 0.00 in0.0 mm
01:20 AM 62.2°F16.8°C 39.4°F4.1°C 43% 5.0 mph SSW8.0 kmh SSW 11.0 mph17.7 kmh 29.75 in1007.5 mb 0.00 in0.0 mm 0.00 in0.0 mm 0.00 in0.0 mm
01:25 AM 62.1°F16.7°C 39.3°F4.1°C 43% 5.0 mph SSW8.0 kmh SSW 9.0 mph14.5 kmh 29.75 in1007.5 mb 0.00 in0.0 mm 0.00 in0.0 mm 0.00 in0.0 mm
01:30 AM 62.0°F16.7°C 39.2°F4.0°C 43% 9.0 mph SSW14.5 kmh SSW 9.0 mph14.5 kmh 29.75 in1007.5 mb 0.00 in0.0 mm 0.00 in0.0 mm 0.00 in0.0 mm
01:35 AM 61.9°F16.6°C 39.1°F3.9°C 43% 8.0 mph SSW12.9 kmh SSW 14.0 mph22.5 kmh 29.75 in1007.5 mb 0.00 in0.0 mm 0.00 in0.0 mm 0.00 in0.0 mm
01:40 AM 61.8°F16.6°C 38.4°F3.6°C 42% 3.0 mph S4.8 kmh S 14.0 mph22.5 kmh 29.75 in1007.5 mb 0.00 in0.0 mm 0.00 in0.0 mm 0.00 in0.0 mm
01:45 AM 61.7°F16.5°C 38.3°F3.5°C 42% 5.0 mph SW8.0 kmh SW 11.0 mph17.7 kmh 29.76 in1007.8 mb 0.00 in0.0 mm 0.00 in0.0 mm 0.00 in0.0 mm
01:50 AM 61.5°F16.4°C 38.1°F3.4°C 42% 7.0 mph SW11.3 kmh SW 12.0 mph19.3 kmh 29.75 in1007.5 mb 0.00 in0.0 mm 0.00 in0.0 mm 0.00 in0.0 mm
01:55 AM 61.3°F16.3°C 38.0°F3.3°C 42% 8.0 mph S12.9 kmh S 14.0 mph22.5 kmh 29.75 in1007.5 mb 0.00 in0.0 mm 0.00 in0.0 mm 0.00 in0.0 mm
02:00 AM 61.2°F16.2°C 37.9°F3.3°C 42% 4.0 mph SW6.4 kmh SW 12.0 mph19.3 kmh 29.76 in1007.8 mb 0.00 in0.0 mm 0.00 in0.0 mm 0.00 in0.0 mm
02:05 AM 61.0°F16.1°C 37.7°F3.2°C 42% 11.0 mph SW17.7 kmh SW 15.0 mph24.1 kmh 29.76 in1007.8 mb 0.00 in0.0 mm 0.00 in0.0 mm 0.00 in0.0 mm
02:10 AM 60.8°F16.0°C 38.1°F3.4°C 43% 8.0 mph S12.9 kmh S 15.0 mph24.1 kmh 29.76 in1007.8 mb 0.00 in0.0 mm 0.00 in0.0 mm 0.00 in0.0 mm
02:15 AM 60.7°F15.9°C 38.0°F3.3°C 43% 5.0 mph SW8.0 kmh SW 14.0 mph22.5 kmh 29.75 in1007.5 mb 0.00 in0.0 mm 0.00 in0.0 mm 0.00 in0.0 mm
02:20 AM 60.5°F15.8°C 37.8°F3.2°C 43% 6.0 mph SW9.7 kmh SW 12.0 mph19.3 kmh 29.76 in1007.8 mb 0.00 in0.0 mm 0.00 in0.0 mm 0.00 in0.0 mm
02:25 AM 60.3°F15.7°C 37.7°F3.2°C 43% 6.0 mph WSW9.7 kmh WSW 12.0 mph19.3 kmh 29.76 in1007.8 mb 0.00 in0.0 mm 0.00 in0.0 mm 0.00 in0.0 mm
02:30 AM 60.2°F15.7°C 38.2°F3.4°C 44% 9.0 mph SSW14.5 kmh SSW 11.0 mph17.7 kmh 29.76 in1007.8 mb 0.00 in0.0 mm 0.00 in0.0 mm 0.00 in0.0 mm
02:35 AM 60.1°F15.6°C 38.1°F3.4°C 44% 9.0 mph W14.5 kmh W 14.0 mph22.5 kmh 29.77 in1008.1 mb 0.00 in0.0 mm 0.00 in0.0 mm 0.00 in0.0 mm
02:40 AM 60.0°F15.6°C 39.1°F3.9°C 46% 6.0 mph WSW9.7 kmh WSW 14.0 mph22.5 kmh 29.77 in1008.1 mb 0.00 in0.0 mm 0.00 in0.0 mm 0.00 in0.0 mm
02:45 AM 59.8°F15.4°C 39.5°F4.2°C 47% 6.0 mph WSW9.7 kmh WSW 11.0 mph17.7 kmh 29.77 in1008.1 mb 0.00 in0.0 mm 0.00 in0.0 mm 0.00 in0.0 mm
02:50 AM 59.5°F15.3°C 39.7°F4.3°C 48% 6.0 mph WSW9.7 kmh WSW 14.0 mph22.5 kmh 29.78 in1008.5 mb 0.00 in0.0 mm 0.00 in0.0 mm 0.00 in0.0 mm
02:55 AM 59.2°F15.1°C 40.0°F4.4°C 49% 10.0 mph W16.1 kmh W 14.0 mph22.5 kmh 29.78 in1008.5 mb 0.00 in0.0 mm 0.00 in0.0 mm 0.00 in0.0 mm
03:00 AM 58.9°F14.9°C 40.2°F4.6°C 50% 7.0 mph W11.3 kmh W 15.0 mph24.1 kmh 29.78 in1008.5 mb 0.00 in0.0 mm 0.00 in0.0 mm 0.00 in0.0 mm
03:05 AM 58.7°F14.8°C 40.6°F4.8°C 51% 5.0 mph WNW8.0 kmh WNW 14.0 mph22.5 kmh 29.78 in1008.5 mb 0.00 in0.0 mm 0.00 in0.0 mm 0.00 in0.0 mm
03:10 AM 58.5°F14.7°C 40.9°F4.9°C 52% 11.0 mph WSW17.7 kmh WSW 13.0 mph20.9 kmh 29.79 in1008.8 mb 0.00 in0.0 mm 0.00 in0.0 mm 0.00 in0.0 mm
03:15 AM 58.3°F14.6°C 40.7°F4.8°C 52% 6.0 mph NW9.7 kmh NW 12.0 mph19.3 kmh 29.79 in1008.8 mb 0.00 in0.0 mm 0.00 in0.0 mm 0.00 in0.0 mm
03:20 AM 58.2°F14.6°C 41.1°F5.1°C 53% 10.0 mph W16.1 kmh W 10.0 mph16.1 kmh 29.79 in1008.8 mb 0.00 in0.0 mm 0.00 in0.0 mm 0.00 in0.0 mm
03:25 AM 58.1°F14.5°C 41.5°F5.3°C 54% 10.0 mph WNW16.1 kmh WNW 11.0 mph17.7 kmh 29.80 in1009.1 mb 0.00 in0.0 mm 0.00 in0.0 mm 0.00 in0.0 mm
03:30 AM 57.8°F14.3°C 41.7°F5.4°C 55% 9.0 mph WNW14.5 kmh WNW 14.0 mph22.5 kmh 29.80 in1009.1 mb 0.00 in0.0 mm 0.00 in0.0 mm 0.00 in0.0 mm
03:35 AM 57.4°F14.1°C 42.7°F5.9°C 58% 10.0 mph NW16.1 kmh NW 14.0 mph22.5 kmh 29.81 in1009.5 mb 0.00 in0.0 mm 0.00 in0.0 mm 0.00 in0.0 mm
03:40 AM 57.0°F13.9°C 44.1°F6.7°C 62% 12.0 mph W19.3 kmh W 15.0 mph24.1 kmh 29.81 in1009.5 mb 0.00 in0.0 mm 0.00 in0.0 mm 0.00 in0.0 mm
03:45 AM 56.1°F13.4°C 45.2°F7.3°C 67% 3.0 mph NW4.8 kmh NW 15.0 mph24.1 kmh 29.82 in1009.8 mb 0.00 in0.0 mm 0.00 in0.0 mm 0.00 in0.0 mm
03:50 AM 55.4°F13.0°C 45.7°F7.6°C 70% 7.0 mph WNW11.3 kmh WNW 11.0 mph17.7 kmh 29.82 in1009.8 mb 0.00 in0.0 mm 0.00 in0.0 mm 0.00 in0.0 mm
03:55 AM 54.6°F12.6°C 45.7°F7.6°C 72% 6.0 mph NW9.7 kmh NW 14.0 mph22.5 kmh 29.82 in1009.8 mb 0.00 in0.0 mm 0.00 in0.0 mm 0.00 in0.0 mm
04:00 AM 53.9°F12.2°C 45.4°F7.4°C 73% 5.0 mph NW8.0 kmh NW 9.0 mph14.5 kmh 29.83 in1010.2 mb 0.00 in0.0 mm 0.00 in0.0 mm 0.00 in0.0 mm
04:05 AM 53.5°F11.9°C 45.4°F7.4°C 74% 10.0 mph WNW16.1 kmh WNW 10.0 mph16.1 kmh 29.82 in1009.8 mb 0.00 in0.0 mm 0.00 in0.0 mm 0.00 in0.0 mm
04:10 AM 53.3°F11.8°C 45.2°F7.3°C 74% 10.0 mph WNW16.1 kmh WNW -- 29.83 in1010.2 mb 0.00 in0.0 mm 0.00 in0.0 mm 0.00 in0.0 mm
04:15 AM 53.2°F11.8°C 45.4°F7.4°C 75% 3.0 mph NNW4.8 kmh NNW 5.0 mph8.0 kmh 29.83 in1010.2 mb 0.00 in0.0 mm 0.00 in0.0 mm 0.00 in0.0 mm
04:20 AM 53.2°F11.8°C 45.4°F7.4°C 75% Calm Calm 3.0 mph4.8 kmh 29.83 in1010.2 mb 0.00 in0.0 mm 0.00 in0.0 mm 0.00 in0.0 mm
04:25 AM 53.2°F11.8°C 45.4°F7.4°C 75% 2.0 mph N3.2 kmh N 4.0 mph6.4 kmh 29.83 in1010.2 mb 0.00 in0.0 mm 0.00 in0.0 mm 0.00 in0.0 mm
04:30 AM 53.2°F11.8°C 45.8°F7.7°C 76% 5.0 mph NW8.0 kmh NW 6.0 mph9.7 kmh 29.84 in1010.5 mb 0.00 in0.0 mm 0.00 in0.0 mm 0.00 in0.0 mm
04:35 AM 53.2°F11.8°C 44.7°F7.1°C 73% 6.0 mph NW9.7 kmh NW 9.0 mph14.5 kmh 29.84 in1010.5 mb 0.00 in0.0 mm 0.00 in0.0 mm 0.00 in0.0 mm
04:40 AM 53.3°F11.8°C 44.5°F6.9°C 72% 8.0 mph NW12.9 kmh NW 7.0 mph11.3 kmh 29.84 in1010.5 mb 0.00 in0.0 mm 0.00 in0.0 mm 0.00 in0.0 mm
04:45 AM 53.4°F11.9°C 43.8°F6.6°C 70% 6.0 mph NW9.7 kmh NW 9.0 mph14.5 kmh 29.84 in1010.5 mb 0.00 in0.0 mm 0.00 in0.0 mm 0.00 in0.0 mm
04:50 AM 53.6°F12.0°C 43.6°F6.4°C 69% 5.0 mph NW8.0 kmh NW 8.0 mph12.9 kmh 29.84 in1010.5 mb 0.00 in0.0 mm 0.00 in0.0 mm 0.00 in0.0 mm
04:55 AM 53.7°F12.1°C 43.7°F6.5°C 69% 6.0 mph NNW9.7 kmh NNW 9.0 mph14.5 kmh 29.84 in1010.5 mb 0.00 in0.0 mm 0.00 in0.0 mm 0.00 in0.0 mm
05:00 AM 53.7°F12.1°C 43.7°F6.5°C 69% 2.0 mph NNW3.2 kmh NNW 9.0 mph14.5 kmh 29.84 in1010.5 mb 0.00 in0.0 mm 0.00 in0.0 mm 0.00 in0.0 mm
05:05 AM 53.8°F12.1°C 44.2°F6.8°C 70% 4.0 mph 6.4 kmh 5.0 mph8.0 kmh 29.85 in1010.8 mb 0.00 in0.0 mm 0.00 in0.0 mm 0.00 in0.0 mm
05:10 AM 53.8°F12.1°C 44.2°F6.8°C 70% 3.0 mph NNE4.8 kmh NNE 5.0 mph8.0 kmh 29.85 in1010.8 mb 0.00 in0.0 mm 0.00 in0.0 mm 0.00 in0.0 mm
05:15 AM 53.8°F12.1°C 44.9°F7.2°C 72% 4.0 mph NNW6.4 kmh NNW 4.0 mph6.4 kmh 29.85 in1010.8 mb 0.01 in0.3 mm 0.12 in3.0 mm 0.01 in0.3 mm
05:20 AM 53.8°F12.1°C 45.7°F7.6°C 74% 2.0 mph NW3.2 kmh NW 5.0 mph8.0 kmh 29.86 in1011.2 mb 0.01 in0.3 mm 0.00 in0.0 mm 0.01 in0.3 mm
05:25 AM 53.5°F11.9°C 46.1°F7.8°C 76% 2.0 mph NNW3.2 kmh NNW 4.0 mph6.4 kmh 29.86 in1011.2 mb 0.03 in0.8 mm 0.24 in6.1 mm 0.03 in0.8 mm
05:30 AM 53.3°F11.8°C 46.2°F7.9°C 77% Calm Calm 3.0 mph4.8 kmh 29.87 in1011.5 mb 0.04 in1.0 mm 0.12 in3.0 mm 0.04 in1.0 mm
05:35 AM 53.0°F11.7°C 46.6°F8.1°C 79% 1.0 mph NNE1.6 kmh NNE 2.0 mph3.2 kmh 29.86 in1011.2 mb 0.05 in1.3 mm 0.12 in3.0 mm 0.05 in1.3 mm
05:40 AM 52.7°F11.5°C 47.0°F8.3°C 81% 3.0 mph ENE4.8 kmh ENE 7.0 mph11.3 kmh 29.86 in1011.2 mb 0.05 in1.3 mm 0.00 in0.0 mm 0.05 in1.3 mm
05:45 AM 52.1°F11.2°C 46.4°F8.0°C 81% 3.0 mph E4.8 kmh E 7.0 mph11.3 kmh 29.86 in1011.2 mb 0.05 in1.3 mm 0.00 in0.0 mm 0.05 in1.3 mm
05:50 AM 51.8°F11.0°C 46.4°F8.0°C 82% Calm Calm 6.0 mph9.7 kmh 29.86 in1011.2 mb 0.05 in1.3 mm 0.00 in0.0 mm 0.05 in1.3 mm
05:55 AM 51.7°F10.9°C 46.7°F8.2°C 83% 2.0 mph SE3.2 kmh SE 4.0 mph6.4 kmh 29.86 in1011.2 mb 0.05 in1.3 mm 0.00 in0.0 mm 0.05 in1.3 mm
06:00 AM 51.8°F11.0°C 47.1°F8.4°C 84% Calm Calm 2.0 mph3.2 kmh 29.87 in1011.5 mb 0.05 in1.3 mm 0.00 in0.0 mm 0.05 in1.3 mm
06:05 AM 51.9°F11.1°C 47.2°F8.4°C 84% 3.0 mph ESE4.8 kmh ESE 4.0 mph6.4 kmh 29.86 in1011.2 mb 0.05 in1.3 mm 0.00 in0.0 mm 0.05 in1.3 mm
06:10 AM 52.0°F11.1°C 47.3°F8.5°C 84% 2.0 mph SE3.2 kmh SE 4.0 mph6.4 kmh 29.87 in1011.5 mb 0.05 in1.3 mm 0.00 in0.0 mm 0.05 in1.3 mm
06:15 AM 52.0°F11.1°C 46.9°F8.3°C 83% Calm Calm 2.0 mph3.2 kmh 29.87 in1011.5 mb 0.04 in1.0 mm 0.00 in0.0 mm 0.05 in1.3 mm
06:20 AM 52.1°F11.2°C 47.0°F8.3°C 83% 1.0 mph SE1.6 kmh SE 4.0 mph6.4 kmh 29.87 in1011.5 mb 0.04 in1.0 mm 0.00 in0.0 mm 0.05 in1.3 mm
06:25 AM 52.2°F11.2°C 47.1°F8.4°C 83% 5.0 mph SE8.0 kmh SE 4.0 mph6.4 kmh 29.87 in1011.5 mb 0.02 in0.5 mm 0.00 in0.0 mm 0.05 in1.3 mm
06:30 AM 52.3°F11.3°C 46.9°F8.3°C 82% 1.0 mph SE1.6 kmh SE 8.0 mph12.9 kmh 29.87 in1011.5 mb 0.01 in0.3 mm 0.00 in0.0 mm 0.05 in1.3 mm
06:35 AM 52.5°F11.4°C 46.5°F8.1°C 80% 1.0 mph SE1.6 kmh SE 5.0 mph8.0 kmh 29.87 in1011.5 mb 0.00 in0.0 mm 0.00 in0.0 mm 0.05 in1.3 mm
06:40 AM 52.7°F11.5°C 46.3°F7.9°C 79% 4.0 mph SE6.4 kmh SE 7.0 mph11.3 kmh 29.88 in1011.9 mb 0.00 in0.0 mm 0.00 in0.0 mm 0.05 in1.3 mm
06:45 AM 53.1°F11.7°C 46.0°F7.8°C 77% Calm Calm 6.0 mph9.7 kmh 29.88 in1011.9 mb 0.00 in0.0 mm 0.00 in0.0 mm 0.05 in1.3 mm
06:50 AM 53.7°F12.1°C 46.3°F7.9°C 76% Calm Calm 4.0 mph6.4 kmh 29.89 in1012.2 mb 0.00 in0.0 mm 0.00 in0.0 mm 0.05 in1.3 mm
06:55 AM 54.4°F12.4°C 46.6°F8.1°C 75% 3.0 mph SE4.8 kmh SE 4.0 mph6.4 kmh 29.89 in1012.2 mb 0.00 in0.0 mm 0.00 in0.0 mm 0.05 in1.3 mm
07:00 AM 54.8°F12.7°C 45.9°F7.7°C 72% Calm Calm 7.0 mph11.3 kmh 29.89 in1012.2 mb 0.00 in0.0 mm 0.00 in0.0 mm 0.05 in1.3 mm
07:05 AM 55.0°F12.8°C 46.1°F7.8°C 72% Calm Calm 4.0 mph6.4 kmh 29.89 in1012.2 mb 0.00 in0.0 mm 0.00 in0.0 mm 0.05 in1.3 mm
07:10 AM 55.3°F12.9°C 46.0°F7.8°C 71% Calm Calm 5.0 mph8.0 kmh 29.90 in1012.5 mb 0.00 in0.0 mm 0.00 in0.0 mm 0.05 in1.3 mm
07:15 AM 55.8°F13.2°C 46.1°F7.8°C 70% Calm Calm 5.0 mph8.0 kmh 29.90 in1012.5 mb 0.00 in0.0 mm 0.00 in0.0 mm 0.05 in1.3 mm
07:20 AM 56.3°F13.5°C 46.2°F7.9°C 69% 3.0 mph SE4.8 kmh SE 4.0 mph6.4 kmh 29.90 in1012.5 mb 0.00 in0.0 mm 0.00 in0.0 mm 0.05 in1.3 mm
07:25 AM 56.6°F13.7°C 45.3°F7.4°C 66% 4.0 mph E6.4 kmh E 8.0 mph12.9 kmh 29.91 in1012.9 mb 0.00 in0.0 mm 0.00 in0.0 mm 0.05 in1.3 mm
07:30 AM 56.8°F13.8°C 45.1°F7.3°C 65% 2.0 mph SSE3.2 kmh SSE 8.0 mph12.9 kmh 29.91 in1012.9 mb 0.00 in0.0 mm 0.00 in0.0 mm 0.05 in1.3 mm
07:35 AM 57.2°F14.0°C 45.9°F7.7°C 66% 4.0 mph S6.4 kmh S 7.0 mph11.3 kmh 29.91 in1012.9 mb 0.00 in0.0 mm 0.00 in0.0 mm 0.05 in1.3 mm
07:40 AM 57.7°F14.3°C 45.6°F7.6°C 64% 2.0 mph SE3.2 kmh SE 12.0 mph19.3 kmh 29.91 in1012.9 mb 0.00 in0.0 mm 0.00 in0.0 mm 0.05 in1.3 mm
07:45 AM 58.1°F14.5°C 45.9°F7.7°C 64% 4.0 mph S6.4 kmh S 8.0 mph12.9 kmh 29.91 in1012.9 mb 0.00 in0.0 mm 0.00 in0.0 mm 0.05 in1.3 mm
07:50 AM 58.5°F14.7°C 45.9°F7.7°C 63% 6.0 mph S9.7 kmh S 8.0 mph12.9 kmh 29.91 in1012.9 mb 0.00 in0.0 mm 0.00 in0.0 mm 0.05 in1.3 mm
07:55 AM 58.9°F14.9°C 46.3°F7.9°C 63% 4.0 mph SE6.4 kmh SE 8.0 mph12.9 kmh 29.91 in1012.9 mb 0.00 in0.0 mm 0.00 in0.0 mm 0.05 in1.3 mm
08:00 AM 59.1°F15.1°C 46.0°F7.8°C 62% 3.0 mph S4.8 kmh S 9.0 mph14.5 kmh 29.91 in1012.9 mb 0.00 in0.0 mm 0.00 in0.0 mm 0.05 in1.3 mm
08:05 AM 59.5°F15.3°C 46.4°F8.0°C 62% 4.0 mph SSW6.4 kmh SSW 11.0 mph17.7 kmh 29.92 in1013.2 mb 0.00 in0.0 mm 0.00 in0.0 mm 0.05 in1.3 mm
08:10 AM 59.9°F15.5°C 46.4°F8.0°C 61% 3.0 mph ESE4.8 kmh ESE 8.0 mph12.9 kmh 29.92 in1013.2 mb 0.00 in0.0 mm 0.00 in0.0 mm 0.05 in1.3 mm
08:15 AM 60.1°F15.6°C 46.1°F7.8°C 60% 1.0 mph SE1.6 kmh SE 9.0 mph14.5 kmh 29.93 in1013.5 mb 0.00 in0.0 mm 0.00 in0.0 mm 0.05 in1.3 mm
08:20 AM 60.3°F15.7°C 45.9°F7.7°C 59% 7.0 mph S11.3 kmh S 8.0 mph12.9 kmh 29.93 in1013.5 mb 0.00 in0.0 mm 0.00 in0.0 mm 0.05 in1.3 mm
08:25 AM 60.5°F15.8°C 46.0°F7.8°C 59% 8.0 mph SE12.9 kmh SE 11.0 mph17.7 kmh 29.93 in1013.5 mb 0.00 in0.0 mm 0.00 in0.0 mm 0.05 in1.3 mm
08:30 AM 60.3°F15.7°C 45.9°F7.7°C 59% 7.0 mph SW11.3 kmh SW 11.0 mph17.7 kmh 29.93 in1013.5 mb 0.00 in0.0 mm 0.00 in0.0 mm 0.05 in1.3 mm
08:35 AM 60.7°F15.9°C 46.2°F7.9°C 59% 1.0 mph SSE1.6 kmh SSE 10.0 mph16.1 kmh 29.93 in1013.5 mb 0.00 in0.0 mm 0.00 in0.0 mm 0.05 in1.3 mm
08:40 AM 61.2°F16.2°C 46.3°F7.9°C 58% 2.0 mph SSE3.2 kmh SSE 9.0 mph14.5 kmh 29.93 in1013.5 mb 0.00 in0.0 mm 0.00 in0.0 mm 0.05 in1.3 mm
08:45 AM 61.5°F16.4°C 46.5°F8.1°C 58% 9.0 mph SSE14.5 kmh SSE 11.0 mph17.7 kmh 29.93 in1013.5 mb 0.00 in0.0 mm 0.00 in0.0 mm 0.05 in1.3 mm
08:50 AM 61.5°F16.4°C 45.1°F7.3°C 55% 4.0 mph S6.4 kmh S 11.0 mph17.7 kmh 29.93 in1013.5 mb 0.00 in0.0 mm 0.00 in0.0 mm 0.05 in1.3 mm
08:55 AM 61.5°F16.4°C 46.1°F7.8°C 57% 3.0 mph SE4.8 kmh SE 9.0 mph14.5 kmh 29.94 in1013.9 mb 0.00 in0.0 mm 0.00 in0.0 mm 0.05 in1.3 mm
09:00 AM 62.1°F16.7°C 46.2°F7.9°C 56% 5.0 mph S8.0 kmh S 7.0 mph11.3 kmh 29.94 in1013.9 mb 0.00 in0.0 mm 0.00 in0.0 mm 0.05 in1.3 mm
09:05 AM 62.0°F16.7°C 45.6°F7.6°C 55% 3.0 mph SSW4.8 kmh SSW 12.0 mph19.3 kmh 29.94 in1013.9 mb 0.00 in0.0 mm 0.00 in0.0 mm 0.05 in1.3 mm
09:10 AM 61.6°F16.4°C 45.7°F7.6°C 56% 5.0 mph S8.0 kmh S 10.0 mph16.1 kmh 29.94 in1013.9 mb 0.00 in0.0 mm 0.00 in0.0 mm 0.05 in1.3 mm
09:15 AM 61.6°F16.4°C 45.7°F7.6°C 56% 3.0 mph S4.8 kmh S 10.0 mph16.1 kmh 29.94 in1013.9 mb 0.01 in0.3 mm 0.12 in3.0 mm 0.06 in1.5 mm
09:20 AM 62.1°F16.7°C 46.2°F7.9°C 56% 6.0 mph S9.7 kmh S 9.0 mph14.5 kmh 29.94 in1013.9 mb 0.01 in0.3 mm 0.00 in0.0 mm 0.06 in1.5 mm
09:25 AM 62.4°F16.9°C 45.5°F7.5°C 54% 11.0 mph SSW17.7 kmh SSW 11.0 mph17.7 kmh 29.94 in1013.9 mb 0.01 in0.3 mm 0.00 in0.0 mm 0.06 in1.5 mm
09:30 AM 62.3°F16.8°C 45.4°F7.4°C 54% 3.0 mph WSW4.8 kmh WSW 10.0 mph16.1 kmh 29.94 in1013.9 mb 0.01 in0.3 mm 0.00 in0.0 mm 0.06 in1.5 mm
09:35 AM 62.8°F17.1°C 45.9°F7.7°C 54% 7.0 mph SW11.3 kmh SW 12.0 mph19.3 kmh 29.95 in1014.2 mb 0.01 in0.3 mm 0.00 in0.0 mm 0.06 in1.5 mm
09:40 AM 63.2°F17.3°C 45.7°F7.6°C 53% 6.0 mph S9.7 kmh S 12.0 mph19.3 kmh 29.95 in1014.2 mb 0.01 in0.3 mm 0.00 in0.0 mm 0.06 in1.5 mm
09:45 AM 63.0°F17.2°C 45.0°F7.2°C 52% 2.0 mph S3.2 kmh S 11.0 mph17.7 kmh 29.95 in1014.2 mb 0.01 in0.3 mm 0.00 in0.0 mm 0.06 in1.5 mm
09:50 AM 63.1°F17.3°C 45.6°F7.6°C 53% 2.0 mph S3.2 kmh S 9.0 mph14.5 kmh 29.95 in1014.2 mb 0.01 in0.3 mm 0.00 in0.0 mm 0.06 in1.5 mm
09:55 AM 63.3°F17.4°C 44.8°F7.1°C 51% 3.0 mph SW4.8 kmh SW 11.0 mph17.7 kmh 29.95 in1014.2 mb 0.01 in0.3 mm 0.00 in0.0 mm 0.06 in1.5 mm
10:00 AM 63.8°F17.7°C 45.3°F7.4°C 51% 4.0 mph SW6.4 kmh SW 12.0 mph19.3 kmh 29.96 in1014.6 mb 0.01 in0.3 mm 0.00 in0.0 mm 0.06 in1.5 mm
10:05 AM 64.1°F17.8°C 45.0°F7.2°C 50% 6.0 mph S9.7 kmh S 12.0 mph19.3 kmh 29.96 in1014.6 mb 0.01 in0.3 mm 0.00 in0.0 mm 0.06 in1.5 mm
10:10 AM 64.2°F17.9°C 45.1°F7.3°C 50% 7.0 mph SW11.3 kmh SW 11.0 mph17.7 kmh 29.96 in1014.6 mb 0.01 in0.3 mm 0.00 in0.0 mm 0.06 in1.5 mm
10:15 AM 64.7°F18.2°C 46.1°F7.8°C 51% 6.0 mph S9.7 kmh S 8.0 mph12.9 kmh 29.96 in1014.6 mb 0.00 in0.0 mm 0.00 in0.0 mm 0.06 in1.5 mm
10:20 AM 65.4°F18.6°C 44.6°F7.0°C 47% 6.0 mph S9.7 kmh S 12.0 mph19.3 kmh 29.96 in1014.6 mb 0.00 in0.0 mm 0.00 in0.0 mm 0.06 in1.5 mm
10:25 AM 65.7°F18.7°C 43.7°F6.5°C 45% 11.0 mph S17.7 kmh S 15.0 mph24.1 kmh 29.96 in1014.6 mb 0.00 in0.0 mm 0.00 in0.0 mm 0.06 in1.5 mm
10:30 AM 65.9°F18.8°C 43.9°F6.6°C 45% 5.0 mph S8.0 kmh S 11.0 mph17.7 kmh 29.97 in1014.9 mb 0.00 in0.0 mm 0.00 in0.0 mm 0.06 in1.5 mm
10:35 AM 66.0°F18.9°C 43.4°F6.3°C 44% 5.0 mph S8.0 kmh S -- 29.96 in1014.6 mb 0.00 in0.0 mm 0.00 in0.0 mm 0.06 in1.5 mm
10:40 AM 66.1°F18.9°C 41.7°F5.4°C 41% 4.0 mph SW6.4 kmh SW 9.0 mph14.5 kmh 29.96 in1014.6 mb 0.00 in0.0 mm 0.00 in0.0 mm 0.06 in1.5 mm
10:45 AM 66.6°F19.2°C 40.8°F4.9°C 39% 5.0 mph SW8.0 kmh SW 17.0 mph27.4 kmh 29.96 in1014.6 mb 0.00 in0.0 mm 0.00 in0.0 mm 0.06 in1.5 mm
10:50 AM 67.2°F19.6°C 40.7°F4.8°C 38% 11.0 mph WSW17.7 kmh WSW 13.0 mph20.9 kmh 29.96 in1014.6 mb 0.00 in0.0 mm 0.00 in0.0 mm 0.06 in1.5 mm
10:55 AM 67.1°F19.5°C 39.9°F4.4°C 37% 3.0 mph SSW4.8 kmh SSW 16.0 mph25.7 kmh 29.97 in1014.9 mb 0.00 in0.0 mm 0.00 in0.0 mm 0.06 in1.5 mm
11:00 AM 67.2°F19.6°C 40.7°F4.8°C 38% 1.0 mph S1.6 kmh S 6.0 mph9.7 kmh 29.97 in1014.9 mb 0.00 in0.0 mm 0.00 in0.0 mm 0.06 in1.5 mm
11:05 AM 67.8°F19.9°C 40.5°F4.7°C 37% 7.0 mph S11.3 kmh S 10.0 mph16.1 kmh 29.97 in1014.9 mb 0.00 in0.0 mm 0.00 in0.0 mm 0.06 in1.5 mm
11:10 AM 68.1°F20.1°C 40.1°F4.5°C 36% 9.0 mph SW14.5 kmh SW 13.0 mph20.9 kmh 29.97 in1014.9 mb 0.00 in0.0 mm 0.00 in0.0 mm 0.06 in1.5 mm
11:15 AM 68.3°F20.2°C 41.0°F5.0°C 37% 4.0 mph WNW6.4 kmh WNW 7.0 mph11.3 kmh 29.97 in1014.9 mb 0.00 in0.0 mm 0.00 in0.0 mm 0.06 in1.5 mm
11:20 AM 69.2°F20.7°C 40.3°F4.6°C 35% 4.0 mph SSW6.4 kmh SSW 12.0 mph19.3 kmh 29.98 in1015.2 mb 0.00 in0.0 mm 0.00 in0.0 mm 0.06 in1.5 mm
11:25 AM 69.9°F21.1°C 40.2°F4.6°C 34% 7.0 mph SW11.3 kmh SW 11.0 mph17.7 kmh 29.98 in1015.2 mb 0.00 in0.0 mm 0.00 in0.0 mm 0.06 in1.5 mm
11:30 AM 70.1°F21.2°C 39.6°F4.2°C 33% 5.0 mph SW8.0 kmh SW 11.0 mph17.7 kmh 29.98 in1015.2 mb 0.00 in0.0 mm 0.00 in0.0 mm 0.06 in1.5 mm
11:35 AM 69.9°F21.1°C 40.2°F4.6°C 34% 8.0 mph WSW12.9 kmh WSW 11.0 mph17.7 kmh 29.98 in1015.2 mb 0.00 in0.0 mm 0.00 in0.0 mm 0.06 in1.5 mm
11:40 AM 69.5°F20.8°C 39.8°F4.3°C 34% 3.0 mph SW4.8 kmh SW 11.0 mph17.7 kmh 29.98 in1015.2 mb 0.00 in0.0 mm 0.00 in0.0 mm 0.06 in1.5 mm
11:45 AM 69.1°F20.6°C 40.2°F4.6°C 35% 6.0 mph SW9.7 kmh SW 11.0 mph17.7 kmh 29.98 in1015.2 mb 0.00 in0.0 mm 0.00 in0.0 mm 0.06 in1.5 mm
11:50 AM 68.6°F20.3°C 39.8°F4.3°C 35% 6.0 mph SW9.7 kmh SW 13.0 mph20.9 kmh 29.98 in1015.2 mb 0.00 in0.0 mm 0.00 in0.0 mm 0.06 in1.5 mm
11:55 AM 68.1°F20.1°C 39.4°F4.1°C 35% 2.0 mph SW3.2 kmh SW 9.0 mph14.5 kmh 29.98 in1015.2 mb 0.00 in0.0 mm 0.00 in0.0 mm 0.06 in1.5 mm
12:00 PM 68.6°F20.3°C 40.5°F4.7°C 36% 3.0 mph WSW4.8 kmh WSW 10.0 mph16.1 kmh 29.98 in1015.2 mb 0.00 in0.0 mm 0.00 in0.0 mm 0.06 in1.5 mm
12:05 PM 68.1°F20.1°C 39.4°F4.1°C 35% 1.0 mph W1.6 kmh W 9.0 mph14.5 kmh 29.98 in1015.2 mb 0.00 in0.0 mm 0.00 in0.0 mm 0.06 in1.5 mm
12:10 PM 67.6°F19.8°C 39.6°F4.2°C 36% 11.0 mph SW17.7 kmh SW 12.0 mph19.3 kmh 29.98 in1015.2 mb 0.00 in0.0 mm 0.00 in0.0 mm 0.06 in1.5 mm
12:15 PM 68.0°F20.0°C 38.5°F3.6°C 34% 8.0 mph SSW12.9 kmh SSW 11.0 mph17.7 kmh 29.98 in1015.2 mb 0.00 in0.0 mm 0.00 in0.0 mm 0.06 in1.5 mm
12:20 PM 68.6°F20.3°C 38.3°F3.5°C 33% 8.0 mph WSW12.9 kmh WSW 12.0 mph19.3 kmh 29.98 in1015.2 mb 0.00 in0.0 mm 0.00 in0.0 mm 0.06 in1.5 mm
12:25 PM 68.4°F20.2°C 38.1°F3.4°C 33% 4.0 mph WSW6.4 kmh WSW 12.0 mph19.3 kmh 29.98 in1015.2 mb 0.00 in0.0 mm 0.00 in0.0 mm 0.06 in1.5 mm
12:30 PM 68.1°F20.1°C 37.9°F3.3°C 33% 4.0 mph SW6.4 kmh SW 6.0 mph9.7 kmh 29.98 in1015.2 mb 0.00 in0.0 mm 0.00 in0.0 mm 0.06 in1.5 mm
12:35 PM 68.3°F20.2°C 38.0°F3.3°C 33% Calm Calm 6.0 mph9.7 kmh 29.98 in1015.2 mb 0.00 in0.0 mm 0.00 in0.0 mm 0.06 in1.5 mm
12:40 PM 69.0°F20.6°C 37.9°F3.3°C 32% 2.0 mph SSE3.2 kmh SSE 11.0 mph17.7 kmh 29.98 in1015.2 mb 0.00 in0.0 mm 0.00 in0.0 mm 0.06 in1.5 mm
12:45 PM 70.1°F21.2°C 37.2°F2.9°C 30% Calm Calm 8.0 mph12.9 kmh 29.98 in1015.2 mb 0.00 in0.0 mm 0.00 in0.0 mm 0.06 in1.5 mm
12:50 PM 70.8°F21.6°C 38.6°F3.7°C 31% 6.0 mph WSW9.7 kmh WSW 5.0 mph8.0 kmh 29.98 in1015.2 mb 0.00 in0.0 mm 0.00 in0.0 mm 0.06 in1.5 mm
12:55 PM 70.9°F21.6°C 38.7°F3.7°C 31% 7.0 mph SW11.3 kmh SW 12.0 mph19.3 kmh 29.98 in1015.2 mb 0.00 in0.0 mm 0.00 in0.0 mm 0.06 in1.5 mm
01:00 PM 71.8°F22.1°C 37.8°F3.2°C 29% 7.0 mph SW11.3 kmh SW 9.0 mph14.5 kmh 29.98 in1015.2 mb 0.00 in0.0 mm 0.00 in0.0 mm 0.06 in1.5 mm
01:05 PM 72.2°F22.3°C 37.2°F2.9°C 28% 5.0 mph SE8.0 kmh SE 7.0 mph11.3 kmh 29.98 in1015.2 mb 0.00 in0.0 mm 0.00 in0.0 mm 0.06 in1.5 mm
01:10 PM 71.9°F22.2°C 37.9°F3.3°C 29% 3.0 mph SSW4.8 kmh SSW 7.0 mph11.3 kmh 29.98 in1015.2 mb 0.00 in0.0 mm 0.00 in0.0 mm 0.06 in1.5 mm
01:15 PM 71.9°F22.2°C 37.9°F3.3°C 29% 3.0 mph SW4.8 kmh SW 11.0 mph17.7 kmh 29.98 in1015.2 mb 0.00 in0.0 mm 0.00 in0.0 mm 0.06 in1.5 mm
01:20 PM 72.2°F22.3°C 37.2°F2.9°C 28% 2.0 mph SW3.2 kmh SW 13.0 mph20.9 kmh 29.98 in1015.2 mb 0.00 in0.0 mm 0.00 in0.0 mm 0.06 in1.5 mm
01:25 PM 72.4°F22.4°C 37.4°F3.0°C 28% 2.0 mph NNE3.2 kmh NNE 6.0 mph9.7 kmh 29.97 in1014.9 mb 0.00 in0.0 mm 0.00 in0.0 mm 0.06 in1.5 mm
01:30 PM 72.8°F22.7°C 36.8°F2.7°C 27% 3.0 mph WSW4.8 kmh WSW 12.0 mph19.3 kmh 29.97 in1014.9 mb 0.00 in0.0 mm 0.00 in0.0 mm 0.06 in1.5 mm
01:35 PM 72.3°F22.4°C 37.3°F2.9°C 28% 2.0 mph W3.2 kmh W 6.0 mph9.7 kmh 29.97 in1014.9 mb 0.00 in0.0 mm 0.00 in0.0 mm 0.06 in1.5 mm
01:40 PM 72.2°F22.3°C 36.3°F2.4°C 27% 4.0 mph S6.4 kmh S 10.0 mph16.1 kmh 29.97 in1014.9 mb 0.00 in0.0 mm 0.00 in0.0 mm 0.06 in1.5 mm
01:45 PM 72.9°F22.7°C 36.9°F2.7°C 27% 3.0 mph SSW4.8 kmh SSW 15.0 mph24.1 kmh 29.97 in1014.9 mb 0.00 in0.0 mm 0.00 in0.0 mm 0.06 in1.5 mm
01:50 PM 74.0°F23.3°C 37.8°F3.2°C 27% 5.0 mph SSW8.0 kmh SSW 11.0 mph17.7 kmh 29.97 in1014.9 mb 0.00 in0.0 mm 0.00 in0.0 mm 0.06 in1.5 mm
01:55 PM 74.3°F23.5°C 36.1°F2.3°C 25% 5.0 mph WSW8.0 kmh WSW 10.0 mph16.1 kmh 29.97 in1014.9 mb 0.00 in0.0 mm 0.00 in0.0 mm 0.06 in1.5 mm
02:00 PM 73.9°F23.3°C 37.8°F3.2°C 27% 2.0 mph SE3.2 kmh SE 10.0 mph16.1 kmh 29.97 in1014.9 mb 0.00 in0.0 mm 0.00 in0.0 mm 0.06 in1.5 mm
02:05 PM 74.0°F23.3°C 36.9°F2.7°C 26% 2.0 mph SW3.2 kmh SW 8.0 mph12.9 kmh 29.97 in1014.9 mb 0.00 in0.0 mm 0.00 in0.0 mm 0.06 in1.5 mm
02:10 PM 73.9°F23.3°C 36.8°F2.7°C 26% 4.0 mph SSE6.4 kmh SSE 9.0 mph14.5 kmh 29.97 in1014.9 mb 0.00 in0.0 mm 0.00 in0.0 mm 0.06 in1.5 mm
02:15 PM 73.0°F22.8°C 36.0°F2.2°C 26% 3.0 mph SE4.8 kmh SE 9.0 mph14.5 kmh 29.97 in1014.9 mb 0.00 in0.0 mm 0.00 in0.0 mm 0.06 in1.5 mm
02:20 PM 72.8°F22.7°C 36.8°F2.7°C 27% 2.0 mph SE3.2 kmh SE 7.0 mph11.3 kmh 29.97 in1014.9 mb 0.00 in0.0 mm 0.00 in0.0 mm 0.06 in1.5 mm
02:25 PM 72.7°F22.6°C 36.7°F2.6°C 27% 3.0 mph SE4.8 kmh SE 8.0 mph12.9 kmh 29.96 in1014.6 mb 0.00 in0.0 mm 0.00 in0.0 mm 0.06 in1.5 mm
02:30 PM 73.4°F23.0°C 37.3°F2.9°C 27% 3.0 mph SW4.8 kmh SW 9.0 mph14.5 kmh 29.96 in1014.6 mb 0.00 in0.0 mm 0.00 in0.0 mm 0.06 in1.5 mm
02:35 PM 74.2°F23.4°C 37.0°F2.8°C 26% 9.0 mph SW14.5 kmh SW 14.0 mph22.5 kmh 29.96 in1014.6 mb 0.00 in0.0 mm 0.00 in0.0 mm 0.06 in1.5 mm
02:40 PM 74.7°F23.7°C 37.5°F3.1°C 26% 14.0 mph WSW22.5 kmh WSW 14.0 mph22.5 kmh 29.96 in1014.6 mb 0.00 in0.0 mm 0.00 in0.0 mm 0.06 in1.5 mm
02:45 PM 74.2°F23.4°C 36.1°F2.3°C 25% 3.0 mph WSW4.8 kmh WSW 10.0 mph16.1 kmh 29.96 in1014.6 mb 0.00 in0.0 mm 0.00 in0.0 mm 0.06 in1.5 mm
02:50 PM 73.8°F23.2°C 36.7°F2.6°C 26% 4.0 mph W6.4 kmh W 8.0 mph12.9 kmh 29.96 in1014.6 mb 0.00 in0.0 mm 0.00 in0.0 mm 0.06 in1.5 mm
02:55 PM 73.6°F23.1°C 36.5°F2.5°C 26% Calm Calm 9.0 mph14.5 kmh 29.96 in1014.6 mb 0.00 in0.0 mm 0.00 in0.0 mm 0.06 in1.5 mm
03:00 PM 74.0°F23.3°C 35.9°F2.2°C 25% 2.0 mph WSW3.2 kmh WSW 12.0 mph19.3 kmh 29.95 in1014.2 mb 0.00 in0.0 mm 0.00 in0.0 mm 0.06 in1.5 mm
03:05 PM 74.0°F23.3°C 36.9°F2.7°C 26% 7.0 mph W11.3 kmh W 8.0 mph12.9 kmh 29.95 in1014.2 mb 0.00 in0.0 mm 0.00 in0.0 mm 0.06 in1.5 mm
03:10 PM 74.1°F23.4°C 37.0°F2.8°C 26% 4.0 mph WSW6.4 kmh WSW 8.0 mph12.9 kmh 29.95 in1014.2 mb 0.00 in0.0 mm 0.00 in0.0 mm 0.06 in1.5 mm
03:15 PM 74.2°F23.4°C 36.1°F2.3°C 25% 2.0 mph NW3.2 kmh NW 7.0 mph11.3 kmh 29.95 in1014.2 mb 0.00 in0.0 mm 0.00 in0.0 mm 0.06 in1.5 mm
03:20 PM 74.4°F23.6°C 36.2°F2.3°C 25% 3.0 mph NE4.8 kmh NE 6.0 mph9.7 kmh 29.95 in1014.2 mb 0.00 in0.0 mm 0.00 in0.0 mm 0.06 in1.5 mm
03:25 PM 75.5°F24.2°C 37.2°F2.9°C 25% 4.0 mph WNW6.4 kmh WNW 8.0 mph12.9 kmh 29.95 in1014.2 mb 0.00 in0.0 mm 0.00 in0.0 mm 0.06 in1.5 mm
03:30 PM 75.4°F24.1°C 36.0°F2.2°C 24% 6.0 mph WSW9.7 kmh WSW 12.0 mph19.3 kmh 29.95 in1014.2 mb 0.00 in0.0 mm 0.00 in0.0 mm 0.06 in1.5 mm
03:35 PM 75.1°F23.9°C 35.8°F2.1°C 24% 6.0 mph WSW9.7 kmh WSW 7.0 mph11.3 kmh 29.94 in1013.9 mb 0.00 in0.0 mm 0.00 in0.0 mm 0.06 in1.5 mm
03:40 PM 75.1°F23.9°C 35.8°F2.1°C 24% 6.0 mph SW9.7 kmh SW 11.0 mph17.7 kmh 29.94 in1013.9 mb 0.00 in0.0 mm 0.00 in0.0 mm 0.06 in1.5 mm
03:45 PM 74.7°F23.7°C 35.4°F1.9°C 24% Calm Calm 9.0 mph14.5 kmh 29.94 in1013.9 mb 0.00 in0.0 mm 0.00 in0.0 mm 0.06 in1.5 mm
03:50 PM 74.9°F23.8°C 36.6°F2.6°C 25% 4.0 mph SW6.4 kmh SW 7.0 mph11.3 kmh 29.94 in1013.9 mb 0.00 in0.0 mm 0.00 in0.0 mm 0.06 in1.5 mm
03:55 PM 75.3°F24.1°C 35.9°F2.2°C 24% 7.0 mph WSW11.3 kmh WSW 11.0 mph17.7 kmh 29.94 in1013.9 mb 0.00 in0.0 mm 0.00 in0.0 mm 0.06 in1.5 mm
04:00 PM 75.1°F23.9°C 35.8°F2.1°C 24% 4.0 mph NNW6.4 kmh NNW 13.0 mph20.9 kmh 29.94 in1013.9 mb 0.00 in0.0 mm 0.00 in0.0 mm 0.06 in1.5 mm
04:05 PM 74.9°F23.8°C 35.6°F2.0°C 24% 7.0 mph WNW11.3 kmh WNW 10.0 mph16.1 kmh 29.94 in1013.9 mb 0.00 in0.0 mm 0.00 in0.0 mm 0.06 in1.5 mm
04:10 PM 74.8°F23.8°C 35.5°F1.9°C 24% 6.0 mph SW9.7 kmh SW 9.0 mph14.5 kmh 29.94 in1013.9 mb 0.00 in0.0 mm 0.00 in0.0 mm 0.06 in1.5 mm
04:15 PM 74.9°F23.8°C 35.6°F2.0°C 24% 4.0 mph WSW6.4 kmh WSW 10.0 mph16.1 kmh 29.94 in1013.9 mb 0.00 in0.0 mm 0.00 in0.0 mm 0.06 in1.5 mm
04:20 PM 75.1°F23.9°C 35.8°F2.1°C 24% 4.0 mph NW6.4 kmh NW 11.0 mph17.7 kmh 29.94 in1013.9 mb 0.00 in0.0 mm 0.00 in0.0 mm 0.06 in1.5 mm
04:25 PM 75.2°F24.0°C 34.8°F1.6°C 23% 4.0 mph WNW6.4 kmh WNW 6.0 mph9.7 kmh 29.94 in1013.9 mb 0.00 in0.0 mm 0.00 in0.0 mm 0.06 in1.5 mm
04:30 PM 75.2°F24.0°C 35.9°F2.2°C 24% 1.0 mph S1.6 kmh S 7.0 mph11.3 kmh 29.94 in1013.9 mb 0.00 in0.0 mm 0.00 in0.0 mm 0.06 in1.5 mm
04:35 PM 75.2°F24.0°C 34.8°F1.6°C 23% 2.0 mph SE3.2 kmh SE 7.0 mph11.3 kmh 29.93 in1013.5 mb 0.00 in0.0 mm 0.00 in0.0 mm 0.06 in1.5 mm
04:40 PM 74.8°F23.8°C 35.5°F1.9°C 24% 5.0 mph WNW8.0 kmh WNW 8.0 mph12.9 kmh 29.93 in1013.5 mb 0.00 in0.0 mm 0.00 in0.0 mm 0.06 in1.5 mm
04:45 PM 74.7°F23.7°C 34.4°F1.3°C 23% 3.0 mph WSW4.8 kmh WSW 7.0 mph11.3 kmh 29.93 in1013.5 mb 0.00 in0.0 mm 0.00 in0.0 mm 0.06 in1.5 mm
04:50 PM 74.7°F23.7°C 35.4°F1.9°C 24% Calm Calm 5.0 mph8.0 kmh 29.93 in1013.5 mb 0.00 in0.0 mm 0.00 in0.0 mm 0.06 in1.5 mm
04:55 PM 74.6°F23.7°C 35.4°F1.9°C 24% Calm Calm 5.0 mph8.0 kmh 29.93 in1013.5 mb 0.00 in0.0 mm 0.00 in0.0 mm 0.06 in1.5 mm
05:00 PM 74.9°F23.8°C 35.6°F2.0°C 24% 4.0 mph WSW6.4 kmh WSW 4.0 mph6.4 kmh 29.93 in1013.5 mb 0.00 in0.0 mm 0.00 in0.0 mm 0.06 in1.5 mm
05:05 PM 75.2°F24.0°C 34.8°F1.6°C 23% Calm Calm 6.0 mph9.7 kmh 29.93 in1013.5 mb 0.00 in0.0 mm 0.00 in0.0 mm 0.06 in1.5 mm
05:10 PM 75.5°F24.2°C 35.0°F1.7°C 23% 3.0 mph SSW4.8 kmh SSW 4.0 mph6.4 kmh 29.93 in1013.5 mb 0.00 in0.0 mm 0.00 in0.0 mm 0.06 in1.5 mm
05:15 PM 75.5°F24.2°C 35.0°F1.7°C 23% 3.0 mph SW4.8 kmh SW 10.0 mph16.1 kmh 29.92 in1013.2 mb 0.00 in0.0 mm 0.00 in0.0 mm 0.06 in1.5 mm
05:20 PM 75.7°F24.3°C 35.2°F1.8°C 23% 3.0 mph S4.8 kmh S 8.0 mph12.9 kmh 29.92 in1013.2 mb 0.00 in0.0 mm 0.00 in0.0 mm 0.06 in1.5 mm
05:25 PM 75.6°F24.2°C 35.1°F1.7°C 23% 3.0 mph ESE4.8 kmh ESE 5.0 mph8.0 kmh 29.92 in1013.2 mb 0.00 in0.0 mm 0.00 in0.0 mm 0.06 in1.5 mm
05:30 PM 74.4°F23.6°C 34.1°F1.2°C 23% 1.0 mph E1.6 kmh E 7.0 mph11.3 kmh 29.92 in1013.2 mb 0.00 in0.0 mm 0.00 in0.0 mm 0.06 in1.5 mm
05:35 PM 74.4°F23.6°C 35.2°F1.8°C 24% 5.0 mph W8.0 kmh W 7.0 mph11.3 kmh 29.92 in1013.2 mb 0.00 in0.0 mm 0.00 in0.0 mm 0.06 in1.5 mm
05:40 PM 74.5°F23.6°C 35.3°F1.8°C 24% 4.0 mph W6.4 kmh W 7.0 mph11.3 kmh 29.92 in1013.2 mb 0.00 in0.0 mm 0.00 in0.0 mm 0.06 in1.5 mm
05:45 PM 74.6°F23.7°C 35.4°F1.9°C 24% 3.0 mph NW4.8 kmh NW 9.0 mph14.5 kmh 29.92 in1013.2 mb 0.00 in0.0 mm 0.00 in0.0 mm 0.06 in1.5 mm
05:50 PM 74.6°F23.7°C 35.4°F1.9°C 24% 4.0 mph WSW6.4 kmh WSW 9.0 mph14.5 kmh 29.92 in1013.2 mb 0.00 in0.0 mm 0.00 in0.0 mm 0.06 in1.5 mm
05:55 PM 74.7°F23.7°C 34.4°F1.3°C 23% Calm Calm 5.0 mph8.0 kmh 29.92 in1013.2 mb 0.00 in0.0 mm 0.00 in0.0 mm 0.06 in1.5 mm
06:00 PM 74.8°F23.8°C 35.5°F1.9°C 24% Calm Calm 6.0 mph9.7 kmh 29.92 in1013.2 mb 0.00 in0.0 mm 0.00 in0.0 mm 0.06 in1.5 mm
06:05 PM 74.8°F23.8°C 34.5°F1.4°C 23% 6.0 mph S9.7 kmh S 6.0 mph9.7 kmh 29.92 in1013.2 mb 0.00 in0.0 mm 0.00 in0.0 mm 0.06 in1.5 mm
06:10 PM 74.9°F23.8°C 35.6°F2.0°C 24% Calm Calm 4.0 mph6.4 kmh 29.92 in1013.2 mb 0.00 in0.0 mm 0.00 in0.0 mm 0.06 in1.5 mm
06:15 PM 75.0°F23.9°C 34.6°F1.4°C 23% Calm Calm 3.0 mph4.8 kmh 29.92 in1013.2 mb 0.00 in0.0 mm 0.00 in0.0 mm 0.06 in1.5 mm
06:20 PM 74.9°F23.8°C 35.6°F2.0°C 24% Calm Calm 2.0 mph3.2 kmh 29.92 in1013.2 mb 0.00 in0.0 mm 0.00 in0.0 mm 0.06 in1.5 mm
06:25 PM 74.9°F23.8°C 35.6°F2.0°C 24% 2.0 mph SSW3.2 kmh SSW 2.0 mph3.2 kmh 29.92 in1013.2 mb 0.00 in0.0 mm 0.00 in0.0 mm 0.06 in1.5 mm
06:30 PM 74.9°F23.8°C 35.6°F2.0°C 24% Calm Calm 2.0 mph3.2 kmh 29.92 in1013.2 mb 0.00 in0.0 mm 0.00 in0.0 mm 0.06 in1.5 mm
06:35 PM 74.6°F23.7°C 35.4°F1.9°C 24% Calm Calm -- 29.92 in1013.2 mb 0.00 in0.0 mm 0.00 in0.0 mm 0.06 in1.5 mm
06:40 PM 74.4°F23.6°C 35.2°F1.8°C 24% 1.0 mph S1.6 kmh S 3.0 mph4.8 kmh 29.92 in1013.2 mb 0.00 in0.0 mm 0.00 in0.0 mm 0.06 in1.5 mm
06:45 PM 74.2°F23.4°C 35.0°F1.7°C 24% Calm Calm 2.0 mph3.2 kmh 29.92 in1013.2 mb 0.00 in0.0 mm 0.00 in0.0 mm 0.06 in1.5 mm
06:50 PM 74.2°F23.4°C 35.0°F1.7°C 24% Calm Calm -- 29.92 in1013.2 mb 0.00 in0.0 mm 0.00 in0.0 mm 0.06 in1.5 mm
06:55 PM 74.1°F23.4°C 34.9°F1.6°C 24% 2.0 mph S3.2 kmh S 3.0 mph4.8 kmh 29.92 in1013.2 mb 0.00 in0.0 mm 0.00 in0.0 mm 0.06 in1.5 mm
07:00 PM 74.0°F23.3°C 34.9°F1.6°C 24% 2.0 mph SW3.2 kmh SW 3.0 mph4.8 kmh 29.92 in1013.2 mb 0.00 in0.0 mm 0.00 in0.0 mm 0.06 in1.5 mm
07:05 PM 73.8°F23.2°C 34.7°F1.5°C 24% 1.0 mph SW1.6 kmh SW 3.0 mph4.8 kmh 29.92 in1013.2 mb 0.00 in0.0 mm 0.00 in0.0 mm 0.06 in1.5 mm
07:10 PM 73.5°F23.1°C 34.4°F1.3°C 24% Calm Calm 2.0 mph3.2 kmh 29.92 in1013.2 mb 0.00 in0.0 mm 0.00 in0.0 mm 0.06 in1.5 mm
07:15 PM 73.1°F22.8°C 35.1°F1.7°C 25% 1.0 mph SW1.6 kmh SW 2.0 mph3.2 kmh 29.92 in1013.2 mb 0.00 in0.0 mm 0.00 in0.0 mm 0.06 in1.5 mm
07:20 PM 72.5°F22.5°C 34.6°F1.4°C 25% 1.0 mph SW1.6 kmh SW 2.0 mph3.2 kmh 29.92 in1013.2 mb 0.00 in0.0 mm 0.00 in0.0 mm 0.06 in1.5 mm
07:25 PM 72.0°F22.2°C 35.2°F1.8°C 26% Calm Calm 1.0 mph1.6 kmh 29.92 in1013.2 mb 0.00 in0.0 mm 0.00 in0.0 mm 0.06 in1.5 mm
07:30 PM 71.6°F22.0°C 34.8°F1.6°C 26% Calm Calm -- 29.92 in1013.2 mb 0.00 in0.0 mm 0.00 in0.0 mm 0.06 in1.5 mm
07:35 PM 71.3°F21.8°C 35.5°F1.9°C 27% Calm Calm -- 29.92 in1013.2 mb 0.00 in0.0 mm 0.00 in0.0 mm 0.06 in1.5 mm
07:40 PM 70.9°F21.6°C 35.2°F1.8°C 27% Calm Calm -- 29.92 in1013.2 mb 0.00 in0.0 mm 0.00 in0.0 mm 0.06 in1.5 mm
07:45 PM 70.4°F21.3°C 35.7°F2.1°C 28% Calm Calm -- 29.92 in1013.2 mb 0.00 in0.0 mm 0.00 in0.0 mm 0.06 in1.5 mm
07:50 PM 70.0°F21.1°C 36.2°F2.3°C 29% Calm Calm -- 29.92 in1013.2 mb 0.00 in0.0 mm 0.00 in0.0 mm 0.06 in1.5 mm
07:55 PM 69.5°F20.8°C 35.8°F2.1°C 29% Calm Calm -- 29.92 in1013.2 mb 0.00 in0.0 mm 0.00 in0.0 mm 0.06 in1.5 mm
08:00 PM 69.0°F20.6°C 36.2°F2.3°C 30% Calm Calm -- 29.92 in1013.2 mb 0.00 in0.0 mm 0.00 in0.0 mm 0.06 in1.5 mm
08:05 PM 68.6°F20.3°C 35.9°F2.2°C 30% Calm Calm -- 29.92 in1013.2 mb 0.00 in0.0 mm 0.00 in0.0 mm 0.06 in1.5 mm
08:10 PM 68.2°F20.1°C 36.4°F2.4°C 31% Calm Calm -- 29.93 in1013.5 mb 0.00 in0.0 mm 0.00 in0.0 mm 0.06 in1.5 mm
08:15 PM 67.7°F19.8°C 36.7°F2.6°C 32% Calm Calm -- 29.93 in1013.5 mb 0.00 in0.0 mm 0.00 in0.0 mm 0.06 in1.5 mm
08:20 PM 67.2°F19.6°C 36.3°F2.4°C 32% Calm Calm 1.0 mph1.6 kmh 29.93 in1013.5 mb 0.00 in0.0 mm 0.00 in0.0 mm 0.06 in1.5 mm
08:25 PM 66.8°F19.3°C 35.9°F2.2°C 32% Calm Calm 2.0 mph3.2 kmh 29.93 in1013.5 mb 0.00 in0.0 mm 0.00 in0.0 mm 0.06 in1.5 mm
08:30 PM 66.4°F19.1°C 36.4°F2.4°C 33% Calm Calm 2.0 mph3.2 kmh 29.93 in1013.5 mb 0.00 in0.0 mm 0.00 in0.0 mm 0.06 in1.5 mm
08:35 PM 66.0°F18.9°C 36.0°F2.2°C 33% Calm Calm 2.0 mph3.2 kmh 29.93 in1013.5 mb 0.00 in0.0 mm 0.00 in0.0 mm 0.06 in1.5 mm
08:40 PM 65.5°F18.6°C 36.3°F2.4°C 34% Calm Calm -- 29.93 in1013.5 mb 0.00 in0.0 mm 0.00 in0.0 mm 0.06 in1.5 mm
08:45 PM 65.1°F18.4°C 36.0°F2.2°C 34% Calm Calm 2.0 mph3.2 kmh 29.93 in1013.5 mb 0.00 in0.0 mm 0.00 in0.0 mm 0.06 in1.5 mm
08:50 PM 64.8°F18.2°C 35.7°F2.1°C 34% Calm Calm 2.0 mph3.2 kmh 29.93 in1013.5 mb 0.00 in0.0 mm 0.00 in0.0 mm 0.06 in1.5 mm
08:55 PM 64.5°F18.1°C 35.5°F1.9°C 34% Calm Calm -- 29.93 in1013.5 mb 0.00 in0.0 mm 0.00 in0.0 mm 0.06 in1.5 mm
09:00 PM 64.3°F17.9°C 36.0°F2.2°C 35% Calm Calm 2.0 mph3.2 kmh 29.93 in1013.5 mb 0.00 in0.0 mm 0.00 in0.0 mm 0.06 in1.5 mm
09:05 PM 64.0°F17.8°C 35.7°F2.1°C 35% 3.0 mph N4.8 kmh N 4.0 mph6.4 kmh 29.93 in1013.5 mb 0.00 in0.0 mm 0.00 in0.0 mm 0.06 in1.5 mm
09:10 PM 63.8°F17.7°C 35.6°F2.0°C 35% 3.0 mph N4.8 kmh N 4.0 mph6.4 kmh 29.93 in1013.5 mb 0.00 in0.0 mm 0.00 in0.0 mm 0.06 in1.5 mm
09:15 PM 63.5°F17.5°C 35.3°F1.8°C 35% 2.0 mph N3.2 kmh N 4.0 mph6.4 kmh 29.94 in1013.9 mb 0.00 in0.0 mm 0.00 in0.0 mm 0.06 in1.5 mm
09:20 PM 63.4°F17.4°C 35.2°F1.8°C 35% 3.0 mph N4.8 kmh N 5.0 mph8.0 kmh 29.94 in1013.9 mb 0.00 in0.0 mm 0.00 in0.0 mm 0.06 in1.5 mm
09:25 PM 63.4°F17.4°C 35.2°F1.8°C 35% 3.0 mph N4.8 kmh N 4.0 mph6.4 kmh 29.94 in1013.9 mb 0.00 in0.0 mm 0.00 in0.0 mm 0.06 in1.5 mm
09:30 PM 63.5°F17.5°C 35.3°F1.8°C 35% 1.0 mph NNE1.6 kmh NNE 5.0 mph8.0 kmh 29.94 in1013.9 mb 0.00 in0.0 mm 0.00 in0.0 mm 0.06 in1.5 mm
09:35 PM 63.7°F17.6°C 34.8°F1.6°C 34% 2.0 mph ENE3.2 kmh ENE 8.0 mph12.9 kmh 29.94 in1013.9 mb 0.00 in0.0 mm 0.00 in0.0 mm 0.06 in1.5 mm
09:40 PM 64.0°F17.8°C 35.0°F1.7°C 34% 4.0 mph NNE6.4 kmh NNE 7.0 mph11.3 kmh 29.94 in1013.9 mb 0.00 in0.0 mm 0.00 in0.0 mm 0.06 in1.5 mm
09:45 PM 64.4°F18.0°C 35.4°F1.9°C 34% 2.0 mph NE3.2 kmh NE 7.0 mph11.3 kmh 29.94 in1013.9 mb 0.00 in0.0 mm 0.00 in0.0 mm 0.06 in1.5 mm
09:50 PM 64.6°F18.1°C 34.8°F1.6°C 33% 2.0 mph N3.2 kmh N 6.0 mph9.7 kmh 29.94 in1013.9 mb 0.00 in0.0 mm 0.00 in0.0 mm 0.06 in1.5 mm
09:55 PM 64.9°F18.3°C 35.1°F1.7°C 33% 3.0 mph NE4.8 kmh NE 7.0 mph11.3 kmh 29.94 in1013.9 mb 0.00 in0.0 mm 0.00 in0.0 mm 0.06 in1.5 mm
10:00 PM 65.0°F18.3°C 35.1°F1.7°C 33% 3.0 mph NE4.8 kmh NE 6.0 mph9.7 kmh 29.94 in1013.9 mb 0.00 in0.0 mm 0.00 in0.0 mm 0.06 in1.5 mm
10:05 PM 65.2°F18.4°C 35.3°F1.8°C 33% 2.0 mph NNE3.2 kmh NNE 6.0 mph9.7 kmh 29.94 in1013.9 mb 0.00 in0.0 mm 0.00 in0.0 mm 0.06 in1.5 mm
10:10 PM 65.3°F18.5°C 34.6°F1.4°C 32% 2.0 mph NE3.2 kmh NE 8.0 mph12.9 kmh 29.94 in1013.9 mb 0.00 in0.0 mm 0.00 in0.0 mm 0.06 in1.5 mm
10:15 PM 65.4°F18.6°C 34.7°F1.5°C 32% 3.0 mph NNE4.8 kmh NNE 7.0 mph11.3 kmh 29.94 in1013.9 mb 0.00 in0.0 mm 0.00 in0.0 mm 0.06 in1.5 mm
10:20 PM 65.5°F18.6°C 34.8°F1.6°C 32% 4.0 mph N6.4 kmh N 6.0 mph9.7 kmh 29.94 in1013.9 mb 0.00 in0.0 mm 0.00 in0.0 mm 0.06 in1.5 mm
10:25 PM 65.5°F18.6°C 34.8°F1.6°C 32% 4.0 mph N6.4 kmh N 6.0 mph9.7 kmh 29.94 in1013.9 mb 0.00 in0.0 mm 0.00 in0.0 mm 0.06 in1.5 mm
10:30 PM 65.5°F18.6°C 35.6°F2.0°C 33% 2.0 mph N3.2 kmh N 5.0 mph8.0 kmh 29.94 in1013.9 mb 0.00 in0.0 mm 0.00 in0.0 mm 0.06 in1.5 mm
10:35 PM 65.3°F18.5°C 35.4°F1.9°C 33% 4.0 mph N6.4 kmh N 5.0 mph8.0 kmh 29.94 in1013.9 mb 0.00 in0.0 mm 0.00 in0.0 mm 0.06 in1.5 mm
10:40 PM 64.9°F18.3°C 35.1°F1.7°C 33% 5.0 mph N8.0 kmh N 7.0 mph11.3 kmh 29.94 in1013.9 mb 0.00 in0.0 mm 0.00 in0.0 mm 0.06 in1.5 mm
10:45 PM 64.5°F18.1°C 35.5°F1.9°C 34% 6.0 mph N9.7 kmh N 8.0 mph12.9 kmh 29.93 in1013.5 mb 0.00 in0.0 mm 0.00 in0.0 mm 0.06 in1.5 mm
10:50 PM 64.0°F17.8°C 35.0°F1.7°C 34% 3.0 mph 4.8 kmh 6.0 mph9.7 kmh 29.93 in1013.5 mb 0.00 in0.0 mm 0.00 in0.0 mm 0.06 in1.5 mm
10:55 PM 63.7°F17.6°C 35.5°F1.9°C 35% 6.0 mph 9.7 kmh 7.0 mph11.3 kmh 29.93 in1013.5 mb 0.00 in0.0 mm 0.00 in0.0 mm 0.06 in1.5 mm
11:00 PM 63.4°F17.4°C 35.2°F1.8°C 35% 4.0 mph N6.4 kmh N 7.0 mph11.3 kmh 29.93 in1013.5 mb 0.00 in0.0 mm 0.00 in0.0 mm 0.06 in1.5 mm
11:05 PM 63.1°F17.3°C 35.7°F2.1°C 36% 7.0 mph N11.3 kmh N 9.0 mph14.5 kmh 29.93 in1013.5 mb 0.00 in0.0 mm 0.00 in0.0 mm 0.06 in1.5 mm
11:10 PM 62.9°F17.2°C 36.2°F2.3°C 37% 5.0 mph N8.0 kmh N 11.0 mph17.7 kmh 29.93 in1013.5 mb 0.00 in0.0 mm 0.00 in0.0 mm 0.06 in1.5 mm
11:15 PM 62.5°F16.9°C 35.8°F2.1°C 37% 7.0 mph N11.3 kmh N 10.0 mph16.1 kmh 29.93 in1013.5 mb 0.00 in0.0 mm 0.00 in0.0 mm 0.06 in1.5 mm
11:20 PM 62.3°F16.8°C 35.6°F2.0°C 37% 4.0 mph N6.4 kmh N 9.0 mph14.5 kmh 29.93 in1013.5 mb 0.00 in0.0 mm 0.00 in0.0 mm 0.06 in1.5 mm
11:25 PM 62.1°F16.7°C 36.1°F2.3°C 38% 8.0 mph N12.9 kmh N 9.0 mph14.5 kmh 29.93 in1013.5 mb 0.00 in0.0 mm 0.00 in0.0 mm 0.06 in1.5 mm
11:30 PM 61.9°F16.6°C 36.0°F2.2°C 38% 2.0 mph N3.2 kmh N 7.0 mph11.3 kmh 29.93 in1013.5 mb 0.00 in0.0 mm 0.00 in0.0 mm 0.06 in1.5 mm
11:35 PM 61.7°F16.5°C 35.8°F2.1°C 38% 5.0 mph N8.0 kmh N 8.0 mph12.9 kmh 29.93 in1013.5 mb 0.00 in0.0 mm 0.00 in0.0 mm 0.06 in1.5 mm
11:40 PM 61.6°F16.4°C 36.4°F2.4°C 39% 3.0 mph NE4.8 kmh NE 6.0 mph9.7 kmh 29.93 in1013.5 mb 0.00 in0.0 mm 0.00 in0.0 mm 0.06 in1.5 mm
11:45 PM 61.4°F16.3°C 36.2°F2.3°C 39% 1.0 mph NE1.6 kmh NE 5.0 mph8.0 kmh 29.92 in1013.2 mb 0.00 in0.0 mm 0.00 in0.0 mm 0.06 in1.5 mm
11:50 PM 61.3°F16.3°C 36.1°F2.3°C 39% 4.0 mph N6.4 kmh N 6.0 mph9.7 kmh 29.92 in1013.2 mb 0.00 in0.0 mm 0.00 in0.0 mm 0.06 in1.5 mm
11:55 PM 61.2°F16.2°C 36.0°F2.2°C 39% 3.0 mph ENE4.8 kmh ENE 7.0 mph11.3 kmh 29.92 in1013.2 mb 0.00 in0.0 mm 0.00 in0.0 mm 0.06 in1.5 mm